Time;durP1;ratioP1;P1;durP2;ratioP2;P2;SDS_P1;SDS_P2;PMS_P1;PMS_P2;Temp;Humidity;BMP_temperature;BMP_pressure;BME280_temperature;BME280_humidity;BME280_pressure;Samples;Min_cycle;Max_cycle;Signal;HPM_P1;HPM_P2
2024/01/17 00:01:02;;;;;;;5.40;1.60;;;;;;;-4.25;48.65;100194.89;104716;1269;60290;-58
2024/01/17 00:03:30;;;;;;;7.90;1.70;;;;;;;-4.18;48.64;100198.35;104815;1261;71428;-57
2024/01/17 00:05:58;;;;;;;6.60;1.60;;;;;;;-4.10;48.58;100205.54;104685;1268;69496;-58
2024/01/17 00:08:25;;;;;;;7.20;2.80;;;;;;;-4.03;48.42;100205.03;104764;1264;72460;-57
2024/01/17 00:10:53;;;;;;;4.00;1.30;;;;;;;-3.94;48.44;100211.86;104768;1264;60045;-57
2024/01/17 00:13:22;;;;;;;5.70;1.80;;;;;;;-3.86;48.30;100218.35;106275;1264;60031;-58
2024/01/17 00:15:49;;;;;;;6.90;2.00;;;;;;;-3.81;48.14;100214.80;104766;1264;75012;-57
2024/01/17 00:18:17;;;;;;;7.80;2.30;;;;;;;-3.75;48.00;100218.44;104692;1261;69927;-57
2024/01/17 00:20:45;;;;;;;8.10;2.00;;;;;;;-3.73;47.87;100217.89;104791;1270;70936;-57
2024/01/17 00:23:12;;;;;;;6.80;1.90;;;;;;;-3.69;47.73;100223.11;104838;1267;60867;-57
2024/01/17 00:25:40;;;;;;;8.30;2.30;;;;;;;-3.66;47.73;100224.58;104725;1263;60044;-55
2024/01/17 00:28:08;;;;;;;6.00;2.20;;;;;;;-3.60;47.72;100225.11;104782;1261;71993;-54
2024/01/17 00:30:35;;;;;;;6.50;1.80;;;;;;;-3.56;47.50;100227.42;104764;1263;70097;-55
2024/01/17 00:33:03;;;;;;;7.00;1.80;;;;;;;-3.53;47.40;100231.64;104765;1264;71174;-55
2024/01/17 00:35:32;;;;;;;8.10;2.30;;;;;;;-3.51;47.28;100235.18;105182;1264;59833;-56
2024/01/17 00:38:00;;;;;;;7.70;2.10;;;;;;;-3.48;47.27;100241.27;105220;1262;60502;-57
2024/01/17 00:40:30;;;;;;;8.50;2.00;;;;;;;-3.46;47.08;100247.58;104717;1264;70881;-57
2024/01/17 00:42:58;;;;;;;4.80;1.90;;;;;;;-3.46;47.03;100251.52;105352;1267;69053;-57
2024/01/17 00:45:26;;;;;;;7.10;2.30;;;;;;;-3.46;46.95;100253.05;105221;1264;73115;-57
2024/01/17 00:47:53;;;;;;;5.90;2.10;;;;;;;-3.53;46.92;100255.45;104747;1264;59713;-56
2024/01/17 00:50:22;;;;;;;5.80;1.90;;;;;;;-3.66;47.17;100249.94;104799;1267;60831;-56
2024/01/17 00:52:50;;;;;;;5.30;2.00;;;;;;;-3.80;47.18;100253.52;105476;1266;73027;-57
2024/01/17 00:55:18;;;;;;;6.60;2.30;;;;;;;-3.93;47.47;100255.86;104835;1264;70382;-57
2024/01/17 00:57:45;;;;;;;7.20;1.80;;;;;;;-4.04;47.60;100255.25;104726;1268;71527;-57
2024/01/17 01:00:13;;;;;;;9.50;3.30;;;;;;;-4.13;47.72;100257.34;104735;1266;59759;-57
2024/01/17 01:02:42;;;;;;;5.50;2.30;;;;;;;-4.21;47.84;100259.91;105631;1264;59765;-57
2024/01/17 01:05:14;;;;;;;8.80;2.30;;;;;;;-4.33;47.87;100266.66;105471;1260;72171;-58
2024/01/17 01:07:42;;;;;;;10.50;2.40;;;;;;;-4.45;48.18;100269.46;105472;1254;70083;-56
2024/01/17 01:10:10;;;;;;;7.50;2.10;;;;;;;-4.53;48.29;100269.47;105201;1256;73136;-56
2024/01/17 01:12:37;;;;;;;6.20;2.50;;;;;;;-4.58;48.50;100273.85;105408;1260;60668;-57
2024/01/17 01:15:06;;;;;;;4.70;1.10;;;;;;;-4.66;48.57;100272.97;105205;1254;60016;-56
2024/01/17 01:17:33;;;;;;;5.00;1.70;;;;;;;-4.70;48.72;100278.19;105204;1259;73063;-57
2024/01/17 01:20:01;;;;;;;8.20;2.10;;;;;;;-4.73;48.77;100279.08;105130;1261;70412;-56
2024/01/17 01:22:29;;;;;;;4.90;2.00;;;;;;;-4.72;48.75;100280.96;105240;1255;72380;-57
2024/01/17 01:24:56;;;;;;;6.50;1.90;;;;;;;-4.68;48.64;100280.37;105152;1257;61610;-57
2024/01/17 01:27:24;;;;;;;6.30;1.80;;;;;;;-4.63;48.54;100287.96;105265;1255;60573;-57
2024/01/17 01:29:51;;;;;;;5.70;1.90;;;;;;;-4.57;48.56;100290.77;105897;1257;72967;-57
2024/01/17 01:32:19;;;;;;;6.60;1.20;;;;;;;-4.52;48.50;100293.08;105334;1257;69484;-56
2024/01/17 01:34:46;;;;;;;8.20;2.00;;;;;;;-4.47;48.44;100292.80;105217;1258;72462;-55
2024/01/17 01:37:14;;;;;;;5.50;1.60;;;;;;;-4.44;48.34;100294.61;105222;1257;60757;-55
2024/01/17 01:39:42;;;;;;;7.80;2.20;;;;;;;-4.41;48.27;100296.28;105208;1255;59624;-56
2024/01/17 01:42:09;;;;;;;5.50;1.90;;;;;;;-4.39;48.21;100305.48;105343;1260;73047;-56
2024/01/17 01:44:37;;;;;;;7.60;2.10;;;;;;;-4.37;48.10;100307.50;105500;1260;68025;-56
2024/01/17 01:47:07;;;;;;;8.50;2.20;;;;;;;-4.37;48.00;100303.58;105192;1257;72654;-56
2024/01/17 01:49:36;;;;;;;6.10;1.80;;;;;;;-4.37;48.00;100305.29;107145;1256;60803;-57
2024/01/17 01:52:04;;;;;;;8.00;2.20;;;;;;;-4.35;47.97;100308.51;106357;1256;60010;-57
2024/01/17 01:54:31;;;;;;;5.90;2.40;;;;;;;-4.34;47.95;100302.83;105625;1256;71772;-56
2024/01/17 01:56:59;;;;;;;6.40;1.60;;;;;;;-4.30;47.86;100303.77;104904;1257;70090;-56
2024/01/17 01:59:27;;;;;;;6.90;2.20;;;;;;;-4.27;47.77;100306.11;105003;1257;71365;-57
2024/01/17 02:01:54;;;;;;;9.40;2.10;;;;;;;-4.24;47.74;100307.42;105447;1258;60777;-56
2024/01/17 02:04:22;;;;;;;7.10;1.50;;;;;;;-4.23;47.62;100310.81;106642;1257;60261;-56
2024/01/17 02:06:50;;;;;;;4.80;1.60;;;;;;;-4.22;47.61;100313.89;105139;1255;72140;-56
2024/01/17 02:09:17;;;;;;;7.90;1.80;;;;;;;-4.24;47.56;100315.31;105142;1262;69060;-56
2024/01/17 02:11:45;;;;;;;8.00;1.90;;;;;;;-4.28;47.43;100318.46;105992;1257;72124;-55
2024/01/17 02:14:13;;;;;;;7.60;1.70;;;;;;;-4.33;47.48;100323.36;105154;1258;60869;-57
2024/01/17 02:16:41;;;;;;;9.60;2.90;;;;;;;-4.36;47.50;100328.55;105273;1258;59746;-56
2024/01/17 02:19:10;;;;;;;8.90;2.30;;;;;;;-4.40;47.39;100331.71;105456;1257;71769;-54
2024/01/17 02:21:37;;;;;;;10.70;2.50;;;;;;;-4.45;47.56;100337.45;105522;1260;69383;-55
2024/01/17 02:24:16;;;;;;;9.10;2.90;;;;;;;-4.49;47.67;100336.34;105238;1257;72624;-56
2024/01/17 02:26:43;;;;;;;10.50;3.10;;;;;;;-4.51;47.56;100335.18;105285;1257;60886;-56
2024/01/17 02:29:11;;;;;;;6.40;1.80;;;;;;;-4.56;47.64;100341.60;105425;1254;59659;-56
2024/01/17 02:31:39;;;;;;;5.10;2.10;;;;;;;-4.60;47.62;100344.41;105222;1254;71762;-54
2024/01/17 02:34:08;;;;;;;8.80;1.70;;;;;;;-4.65;47.72;100346.04;106476;1257;68964;-57
2024/01/17 02:36:35;;;;;;;6.50;2.80;;;;;;;-4.68;47.67;100346.61;105276;1254;71341;-57
2024/01/17 02:39:04;;;;;;;6.00;2.00;;;;;;;-4.68;47.80;100346.08;105227;1261;59698;-57
2024/01/17 02:41:32;;;;;;;4.30;1.50;;;;;;;-4.66;47.83;100346.57;105256;1260;60391;-57
2024/01/17 02:44:00;;;;;;;5.70;2.30;;;;;;;-4.68;47.72;100347.30;105555;1254;72998;-57
2024/01/17 02:46:28;;;;;;;8.90;1.80;;;;;;;-4.71;47.74;100349.41;105284;1260;70116;-56
2024/01/17 02:48:56;;;;;;;4.50;1.70;;;;;;;-4.73;47.83;100346.34;105800;1260;71228;-57
2024/01/17 02:51:23;;;;;;;5.10;1.70;;;;;;;-4.77;47.82;100347.45;105243;1254;60034;-54
2024/01/17 02:53:51;;;;;;;4.30;1.00;;;;;;;-4.82;47.82;100354.89;105241;1254;60060;-55
2024/01/17 02:56:19;;;;;;;7.60;1.60;;;;;;;-4.83;47.84;100351.33;105377;1254;73015;-58
2024/01/17 02:58:46;;;;;;;5.30;1.60;;;;;;;-4.86;48.03;100351.73;105159;1254;70305;-55
2024/01/17 03:01:14;;;;;;;6.70;2.20;;;;;;;-4.88;48.04;100355.51;105196;1254;71416;-58
2024/01/17 03:03:42;;;;;;;4.00;1.30;;;;;;;-4.89;48.08;100359.14;105261;1257;59671;-54
2024/01/17 03:06:10;;;;;;;5.50;2.00;;;;;;;-4.93;48.09;100359.52;105484;1260;59561;-55
2024/01/17 03:08:38;;;;;;;5.30;1.60;;;;;;;-4.96;48.21;100359.58;105462;1256;72019;-57
2024/01/17 03:11:07;;;;;;;6.50;1.70;;;;;;;-4.97;48.19;100360.45;105443;1260;68219;-57
2024/01/17 03:13:35;;;;;;;7.90;1.80;;;;;;;-4.95;48.21;100362.30;105662;1260;72650;-55
2024/01/17 03:16:03;;;;;;;3.20;1.00;;;;;;;-4.94;48.23;100367.07;105219;1254;60868;-56
2024/01/17 03:18:31;;;;;;;6.40;2.00;;;;;;;-4.96;48.17;100367.10;105619;1254;59759;-57
2024/01/17 03:21:03;;;;;;;7.50;1.20;;;;;;;-4.98;48.25;100372.11;105723;1254;73634;-58
2024/01/17 03:23:31;;;;;;;4.40;2.00;;;;;;;-5.02;48.23;100371.66;105433;1257;70187;-56
2024/01/17 03:25:59;;;;;;;6.30;1.50;;;;;;;-5.05;48.25;100375.64;106515;1257;72663;-57
2024/01/17 03:28:27;;;;;;;5.20;1.50;;;;;;;-5.08;48.28;100376.71;105283;1254;60437;-56
2024/01/17 03:30:55;;;;;;;6.50;2.20;;;;;;;-5.12;48.37;100384.12;105784;1254;61716;-56
2024/01/17 03:33:23;;;;;;;7.50;1.70;;;;;;;-5.13;48.44;100385.50;105158;1258;72790;-56
2024/01/17 03:35:51;;;;;;;8.70;1.70;;;;;;;-5.14;48.52;100387.05;105149;1257;68707;-56
2024/01/17 03:38:18;;;;;;;5.50;2.00;;;;;;;-5.16;48.58;100389.16;105903;1258;71710;-57
2024/01/17 03:40:46;;;;;;;7.30;2.20;;;;;;;-5.18;48.64;100392.93;105152;1257;61417;-56
2024/01/17 03:43:13;;;;;;;5.80;2.10;;;;;;;-5.19;48.80;100387.48;105251;1254;61026;-56
2024/01/17 03:45:41;;;;;;;7.10;1.90;;;;;;;-5.17;48.85;100387.45;105225;1254;73965;-57
2024/01/17 03:48:08;;;;;;;5.90;1.30;;;;;;;-5.16;48.85;100392.91;105280;1260;69010;-54
2024/01/17 03:50:36;;;;;;;5.40;1.60;;;;;;;-5.16;48.81;100398.55;105271;1260;72454;-56
2024/01/17 03:53:04;;;;;;;8.00;1.50;;;;;;;-5.17;48.79;100401.31;105245;1256;60904;-57
2024/01/17 03:55:33;;;;;;;7.30;1.40;;;;;;;-5.17;48.84;100404.21;105198;1257;60370;-57
2024/01/17 03:58:01;;;;;;;5.50;1.70;;;;;;;-5.17;48.87;100408.15;105145;1254;73830;-57
2024/01/17 04:00:29;;;;;;;13.30;2.50;;;;;;;-5.15;48.87;100411.20;105769;1257;70277;-57
2024/01/17 04:02:56;;;;;;;27.90;8.70;;;;;;;-5.12;48.71;100415.60;105715;1257;71022;-56
2024/01/17 04:05:24;;;;;;;20.60;5.40;;;;;;;-5.10;48.76;100422.59;105146;1261;60559;-56
2024/01/17 04:07:51;;;;;;;13.00;3.60;;;;;;;-5.06;48.64;100426.28;105897;1260;60528;-58
2024/01/17 04:10:19;;;;;;;27.10;7.10;;;;;;;-5.06;48.63;100426.29;105214;1254;73946;-58
2024/01/17 04:12:47;;;;;;;18.20;7.30;;;;;;;-5.05;48.72;100431.23;105328;1257;70254;-56
2024/01/17 04:15:15;;;;;;;7.70;2.60;;;;;;;-4.99;48.60;100435.59;105245;1254;72644;-55
2024/01/17 04:17:42;;;;;;;5.40;1.30;;;;;;;-4.95;48.49;100439.98;105404;1256;61026;-56
2024/01/17 04:20:11;;;;;;;5.00;1.20;;;;;;;-4.88;48.32;100442.27;105218;1254;60561;-56
2024/01/17 04:22:38;;;;;;;4.60;1.40;;;;;;;-4.85;48.12;100438.27;105433;1256;73856;-56
2024/01/17 04:25:07;;;;;;;5.10;1.30;;;;;;;-4.82;48.04;100446.63;105278;1254;69185;-56
2024/01/17 04:27:34;;;;;;;8.50;1.70;;;;;;;-4.80;47.90;100437.86;105601;1254;71422;-57
2024/01/17 04:30:02;;;;;;;6.30;1.30;;;;;;;-4.78;47.83;100436.81;105578;1254;59631;-55
2024/01/17 04:32:34;;;;;;;5.30;2.00;;;;;;;-4.77;47.66;100436.80;105658;1257;60444;-55
2024/01/17 04:35:02;;;;;;;5.60;1.60;;;;;;;-4.73;47.57;100442.72;105792;1254;72401;-54
2024/01/17 04:37:29;;;;;;;7.00;2.20;;;;;;;-4.74;47.43;100448.37;105768;1254;70284;-56
2024/01/17 04:39:57;;;;;;;5.30;1.40;;;;;;;-4.74;47.52;100449.91;105181;1257;72624;-57
2024/01/17 04:42:25;;;;;;;6.50;1.70;;;;;;;-4.70;47.39;100457.90;105097;1260;61283;-57
2024/01/17 04:44:53;;;;;;;6.20;1.50;;;;;;;-4.69;47.10;100461.14;105839;1254;60555;-57
2024/01/17 04:47:20;;;;;;;10.30;2.30;;;;;;;-4.73;46.94;100469.23;105193;1254;73108;-57
2024/01/17 04:49:48;;;;;;;3.80;1.20;;;;;;;-4.78;46.82;100472.92;105067;1254;70282;-57
2024/01/17 04:52:18;;;;;;;6.10;1.40;;;;;;;-4.84;46.82;100477.96;105325;1257;73133;-56
2024/01/17 04:54:46;;;;;;;8.10;1.90;;;;;;;-4.89;46.78;100481.48;105994;1255;60450;-57
2024/01/17 04:57:13;;;;;;;9.20;2.40;;;;;;;-4.95;46.76;100489.93;105271;1260;60396;-57
2024/01/17 04:59:42;;;;;;;6.20;1.80;;;;;;;-5.00;46.76;100488.30;105158;1260;73417;-55
2024/01/17 05:02:10;;;;;;;9.30;3.10;;;;;;;-5.05;46.77;100496.23;105288;1254;70749;-57
2024/01/17 05:04:37;;;;;;;5.60;2.20;;;;;;;-5.08;46.74;100501.58;104872;1254;71353;-56
2024/01/17 05:07:05;;;;;;;6.20;1.70;;;;;;;-5.15;46.72;100506.64;105025;1260;60990;-56
2024/01/17 05:09:34;;;;;;;8.20;1.80;;;;;;;-5.20;46.68;100506.19;105153;1257;60572;-56
2024/01/17 05:12:01;;;;;;;6.60;2.10;;;;;;;-5.23;46.80;100510.85;105191;1260;73756;-55
2024/01/17 05:14:29;;;;;;;8.40;3.20;;;;;;;-5.29;46.78;100515.04;105141;1258;70257;-56
2024/01/17 05:16:57;;;;;;;6.50;2.10;;;;;;;-5.39;46.69;100515.84;105737;1254;72757;-55
2024/01/17 05:19:25;;;;;;;8.40;1.60;;;;;;;-5.43;46.79;100514.18;105660;1260;60478;-55
2024/01/17 05:21:53;;;;;;;6.20;1.90;;;;;;;-5.47;46.85;100523.28;105087;1256;61091;-56
2024/01/17 05:24:21;;;;;;;8.50;2.10;;;;;;;-5.51;46.82;100528.64;105114;1260;73703;-56
2024/01/17 05:26:48;;;;;;;8.90;1.90;;;;;;;-5.55;46.83;100534.66;105224;1256;69069;-53
2024/01/17 05:29:17;;;;;;;6.50;1.90;;;;;;;-5.57;46.85;100539.13;105151;1257;72679;-56
2024/01/17 05:31:45;;;;;;;10.00;3.40;;;;;;;-5.55;47.13;100541.50;105168;1254;60431;-56
2024/01/17 05:34:13;;;;;;;6.10;2.20;;;;;;;-5.51;47.20;100546.08;105108;1260;60472;-53
2024/01/17 05:36:43;;;;;;;6.20;2.20;;;;;;;-5.50;47.07;100549.13;105342;1257;73827;-55
2024/01/17 05:39:12;;;;;;;9.40;2.30;;;;;;;-5.53;47.01;100557.55;105172;1254;68845;-56
2024/01/17 05:41:40;;;;;;;5.20;1.50;;;;;;;-5.55;47.20;100568.84;104822;1258;72727;-56
2024/01/17 05:44:07;;;;;;;8.80;2.50;;;;;;;-5.57;47.09;100574.52;104908;1255;60793;-56
2024/01/17 05:46:37;;;;;;;12.70;2.60;;;;;;;-5.59;46.94;100583.25;109006;1254;60437;-56
2024/01/17 05:49:05;;;;;;;10.10;1.60;;;;;;;-5.60;46.84;100582.23;108979;1256;74642;-56
2024/01/17 05:51:32;;;;;;;7.60;1.70;;;;;;;-5.56;46.89;100599.46;108978;1257;68867;-57
2024/01/17 05:53:59;;;;;;;7.90;1.80;;;;;;;-5.54;47.01;100602.17;108047;1256;75063;-56
2024/01/17 05:56:27;;;;;;;6.40;1.60;;;;;;;-5.53;46.97;100603.88;105634;1254;61039;-55
2024/01/17 05:58:55;;;;;;;9.20;2.70;;;;;;;-5.47;46.98;100608.42;105657;1260;60372;-55
2024/01/17 06:01:23;;;;;;;16.70;6.20;;;;;;;-5.44;47.10;100613.86;104929;1257;73807;-55
2024/01/17 06:03:50;;;;;;;11.50;3.80;;;;;;;-5.44;47.05;100613.35;105007;1260;70567;-56
2024/01/17 06:06:18;;;;;;;19.10;6.30;;;;;;;-5.52;46.96;100608.98;105240;1257;71715;-55
2024/01/17 06:08:45;;;;;;;20.10;9.20;;;;;;;-5.60;47.02;100610.61;105940;1254;60454;-56
2024/01/17 06:11:13;;;;;;;21.20;8.70;;;;;;;-5.66;47.31;100613.23;105365;1259;60507;-54
2024/01/17 06:13:41;;;;;;;16.90;8.30;;;;;;;-5.71;47.43;100612.41;105201;1255;72659;-55
2024/01/17 06:16:09;;;;;;;10.10;3.00;;;;;;;-5.74;47.67;100609.39;105134;1255;70186;-55
2024/01/17 06:18:37;;;;;;;10.20;3.10;;;;;;;-5.77;47.84;100607.20;105138;1258;73214;-57
2024/01/17 06:21:05;;;;;;;12.10;2.40;;;;;;;-5.76;47.93;100609.91;105243;1260;60430;-55
2024/01/17 06:23:33;;;;;;;6.50;2.30;;;;;;;-5.70;48.07;100608.98;105250;1257;60306;-55
2024/01/17 06:26:00;;;;;;;7.10;2.20;;;;;;;-5.64;48.06;100613.89;105307;1254;72976;-57
2024/01/17 06:28:28;;;;;;;6.30;1.60;;;;;;;-5.61;48.04;100616.27;105121;1254;69308;-57
2024/01/17 06:30:56;;;;;;;6.40;1.60;;;;;;;-5.59;48.08;100619.48;106436;1257;71396;-57
2024/01/17 06:33:24;;;;;;;8.70;2.70;;;;;;;-5.54;48.15;100622.34;105132;1260;60421;-57
2024/01/17 06:35:51;;;;;;;8.80;2.10;;;;;;;-5.46;48.12;100629.61;105192;1260;61623;-58
2024/01/17 06:38:19;;;;;;;8.40;2.00;;;;;;;-5.39;48.08;100634.50;105800;1254;73954;-56
2024/01/17 06:40:47;;;;;;;12.30;2.00;;;;;;;-5.33;48.00;100637.86;105195;1254;70499;-56
2024/01/17 06:43:14;;;;;;;7.50;2.20;;;;;;;-5.26;47.94;100642.05;105200;1258;72808;-55
2024/01/17 06:45:42;;;;;;;5.60;2.00;;;;;;;-5.17;47.86;100645.73;105243;1260;60834;-55
2024/01/17 06:48:10;;;;;;;8.90;2.80;;;;;;;-5.12;47.91;100649.09;105191;1255;60508;-55
2024/01/17 06:50:37;;;;;;;7.30;2.50;;;;;;;-5.06;47.72;100653.48;105213;1254;72187;-56
2024/01/17 06:53:05;;;;;;;12.60;3.60;;;;;;;-5.00;47.91;100653.23;105465;1257;68407;-56
2024/01/17 06:55:33;;;;;;;10.60;2.90;;;;;;;-4.92;47.93;100651.44;105435;1251;72419;-56
2024/01/17 06:58:00;;;;;;;10.60;4.50;;;;;;;-4.86;47.87;100653.92;107507;1251;60762;-57
2024/01/17 07:00:28;;;;;;;13.30;3.00;;;;;;;-4.76;48.02;100651.57;105385;1251;61267;-56
2024/01/17 07:03:00;;;;;;;13.20;4.40;;;;;;;-4.66;47.85;100650.94;109356;1251;74361;-56
2024/01/17 07:05:28;;;;;;;10.90;3.00;;;;;;;-4.59;47.65;100653.58;109343;1251;70063;-56
2024/01/17 07:07:56;;;;;;;11.40;4.20;;;;;;;-4.50;47.69;100654.33;109369;1255;71069;-56
2024/01/17 07:10:23;;;;;;;9.40;4.50;;;;;;;-4.39;47.67;100653.80;109329;1251;58605;-55
2024/01/17 07:12:51;;;;;;;9.60;4.00;;;;;;;-4.29;47.44;100651.96;109379;1253;58789;-57
2024/01/17 07:15:18;;;;;;;13.20;4.70;;;;;;;-4.29;47.19;100651.45;108705;1253;72094;-56
2024/01/17 07:17:46;;;;;;;9.70;5.20;;;;;;;-4.33;47.23;100655.95;105535;1257;69144;-56
2024/01/17 07:20:14;;;;;;;8.60;3.20;;;;;;;-4.39;46.98;100663.93;105518;1254;71413;-55
2024/01/17 07:22:41;;;;;;;7.20;2.30;;;;;;;-4.53;46.93;100664.62;105394;1254;60553;-56
2024/01/17 07:25:10;;;;;;;10.10;4.10;;;;;;;-4.67;47.08;100663.95;105276;1257;60454;-57
2024/01/17 07:27:43;;;;;;;11.70;4.00;;;;;;;-4.75;47.42;100664.39;105581;1253;71910;-58
2024/01/17 07:30:11;;;;;;;11.00;2.90;;;;;;;-4.80;47.51;100666.16;105403;1259;69081;-57
2024/01/17 07:32:39;;;;;;;8.20;3.00;;;;;;;-4.81;47.75;100673.89;105646;1254;72631;-56
2024/01/17 07:35:07;;;;;;;11.30;3.50;;;;;;;-4.85;47.69;100669.99;105671;1254;60714;-57
2024/01/17 07:37:35;;;;;;;8.50;3.10;;;;;;;-4.92;47.80;100676.75;105659;1256;61015;-58
2024/01/17 07:40:04;;;;;;;9.80;3.90;;;;;;;-4.90;47.92;100682.38;105653;1254;73736;-56
2024/01/17 07:42:32;;;;;;;13.70;5.00;;;;;;;-4.81;47.84;100682.44;105855;1257;70449;-56
2024/01/17 07:44:59;;;;;;;15.60;3.70;;;;;;;-4.69;47.87;100684.19;105465;1254;72464;-57
2024/01/17 07:47:27;;;;;;;9.60;4.90;;;;;;;-4.55;47.79;100691.36;105900;1251;61834;-54
2024/01/17 07:49:59;;;;;;;8.10;3.30;;;;;;;-4.46;47.53;100698.78;105436;1257;61324;-55
2024/01/17 07:52:26;;;;;;;9.70;1.90;;;;;;;-4.32;47.60;100699.45;105983;1257;74200;-56
2024/01/17 07:54:54;;;;;;;8.90;2.10;;;;;;;-4.23;47.29;100705.14;105315;1252;69134;-55
2024/01/17 07:57:22;;;;;;;9.40;1.80;;;;;;;-4.16;47.12;100704.04;105380;1257;71473;-55
2024/01/17 07:59:51;;;;;;;7.40;2.50;;;;;;;-4.11;46.85;100712.17;106100;1257;60536;-54
2024/01/17 08:02:19;;;;;;;6.80;1.80;;;;;;;-4.05;46.82;100717.41;106229;1251;60508;-55
2024/01/17 08:04:48;;;;;;;10.90;2.90;;;;;;;-3.95;46.73;100716.23;105409;1254;72782;-57
2024/01/17 08:07:16;;;;;;;14.20;5.00;;;;;;;-3.89;46.53;100710.34;105380;1257;69580;-57
2024/01/17 08:09:44;;;;;;;14.60;5.00;;;;;;;-3.81;46.53;100703.17;105332;1254;71571;-57
2024/01/17 08:12:12;;;;;;;10.90;4.90;;;;;;;-3.63;46.39;100712.82;105309;1254;60532;-55
2024/01/17 08:14:39;;;;;;;9.30;4.60;;;;;;;-3.56;46.23;100709.11;105315;1254;60447;-55
2024/01/17 08:17:07;;;;;;;13.70;3.90;;;;;;;-3.49;46.04;100711.39;105726;1257;74214;-56
2024/01/17 08:19:35;;;;;;;12.70;4.90;;;;;;;-3.48;45.88;100714.80;105693;1251;70302;-58
2024/01/17 08:22:04;;;;;;;8.80;2.80;;;;;;;-3.48;45.89;100716.88;105415;1252;73420;-57
2024/01/17 08:24:31;;;;;;;13.20;5.20;;;;;;;-3.49;45.78;100719.13;105740;1251;60465;-57
2024/01/17 08:26:59;;;;;;;14.20;4.60;;;;;;;-3.54;45.72;100723.32;105480;1251;60354;-57
2024/01/17 08:29:27;;;;;;;12.30;4.70;;;;;;;-3.56;45.79;100724.89;105413;1251;73828;-56
2024/01/17 08:31:56;;;;;;;8.90;3.50;;;;;;;-3.59;45.82;100727.33;105324;1256;68191;-57
2024/01/17 08:34:24;;;;;;;12.60;4.30;;;;;;;-3.62;45.77;100725.14;105481;1252;74903;-56
2024/01/17 08:36:54;;;;;;;8.80;4.00;;;;;;;-3.68;45.87;100725.93;105473;1256;60966;-56
2024/01/17 08:39:22;;;;;;;15.40;4.20;;;;;;;-3.70;45.94;100727.69;105503;1256;60523;-56
2024/01/17 08:41:50;;;;;;;10.60;3.90;;;;;;;-3.73;45.99;100730.31;105364;1257;72809;-57
2024/01/17 08:44:18;;;;;;;10.20;3.10;;;;;;;-3.77;46.08;100738.94;105492;1252;69565;-57
2024/01/17 08:46:46;;;;;;;12.00;3.30;;;;;;;-3.82;45.97;100742.44;105430;1257;71485;-57
2024/01/17 08:49:14;;;;;;;11.40;5.60;;;;;;;-3.87;46.07;100745.42;105500;1251;60910;-57
2024/01/17 08:51:42;;;;;;;9.10;3.10;;;;;;;-3.84;46.12;100749.33;105536;1252;60497;-57
2024/01/17 08:54:10;;;;;;;10.20;3.80;;;;;;;-3.71;46.09;100748.61;105505;1251;72296;-57
2024/01/17 08:56:38;;;;;;;14.40;2.50;;;;;;;-3.55;45.97;100751.28;105171;1256;69864;-58
2024/01/17 08:59:06;;;;;;;13.30;5.80;;;;;;;-3.40;45.78;100750.02;105749;1253;73030;-57
2024/01/17 09:01:34;;;;;;;10.30;3.90;;;;;;;-3.29;45.39;100751.02;105278;1254;60865;-57
2024/01/17 09:04:01;;;;;;;10.20;3.70;;;;;;;-3.17;45.23;100750.81;105333;1251;60552;-57
2024/01/17 09:06:29;;;;;;;11.20;2.20;;;;;;;-3.00;45.16;100752.92;105366;1251;73834;-56
2024/01/17 09:08:56;;;;;;;12.40;4.50;;;;;;;-2.88;44.88;100751.68;105437;1256;68382;-57
2024/01/17 09:11:24;;;;;;;12.00;4.80;;;;;;;-2.74;44.61;100755.02;105529;1251;71390;-57
2024/01/17 09:13:52;;;;;;;12.30;4.60;;;;;;;-2.62;44.32;100754.46;105284;1254;60440;-58
2024/01/17 09:16:19;;;;;;;9.70;4.00;;;;;;;-2.51;44.14;100750.80;105408;1259;60511;-57
2024/01/17 09:18:47;;;;;;;11.10;4.10;;;;;;;-2.45;44.12;100746.20;105439;1256;73855;-56
2024/01/17 09:21:15;;;;;;;13.30;4.60;;;;;;;-2.48;43.88;100742.49;105542;1257;70498;-56
2024/01/17 09:23:43;;;;;;;12.90;6.70;;;;;;;-2.55;43.87;100741.77;105403;1252;73654;-56
2024/01/17 09:26:10;;;;;;;12.00;4.60;;;;;;;-2.63;43.94;100738.66;105354;1254;60834;-56
2024/01/17 09:28:38;;;;;;;10.20;3.90;;;;;;;-2.69;44.07;100740.84;105441;1256;61446;-57
2024/01/17 09:31:06;;;;;;;13.20;4.30;;;;;;;-2.73;44.22;100747.45;105818;1256;75265;-56
2024/01/17 09:33:35;;;;;;;8.60;2.90;;;;;;;-2.76;44.19;100748.02;105449;1257;68912;-58
2024/01/17 09:36:04;;;;;;;9.60;4.30;;;;;;;-2.83;44.14;100748.48;105663;1252;71699;-57
2024/01/17 09:38:31;;;;;;;12.60;6.00;;;;;;;-2.88;44.33;100747.38;105873;1258;60578;-57
2024/01/17 09:40:59;;;;;;;10.00;3.50;;;;;;;-2.86;44.41;100745.30;105461;1251;60616;-58
2024/01/17 09:43:27;;;;;;;10.00;5.10;;;;;;;-2.85;44.52;100745.63;105543;1251;76165;-57
2024/01/17 09:45:54;;;;;;;9.30;3.30;;;;;;;-2.83;44.64;100746.61;105493;1258;69924;-58
2024/01/17 09:48:24;;;;;;;8.70;3.30;;;;;;;-2.77;44.73;100752.16;105555;1257;73080;-58
2024/01/17 09:50:52;;;;;;;9.90;3.60;;;;;;;-2.71;44.72;100752.39;106163;1251;62238;-57
2024/01/17 09:53:25;;;;;;;7.60;3.00;;;;;;;-2.66;44.61;100750.23;105388;1251;62156;-57
2024/01/17 09:55:53;;;;;;;15.10;3.90;;;;;;;-2.61;44.57;100753.94;106126;1251;72587;-59
2024/01/17 09:58:20;;;;;;;11.10;4.60;;;;;;;-2.58;44.58;100757.29;105480;1259;68949;-57
2024/01/17 10:00:48;;;;;;;15.10;4.10;;;;;;;-2.52;44.60;100760.44;105371;1256;71516;-57
2024/01/17 10:03:20;;;;;;;10.10;4.00;;;;;;;-2.47;44.51;100757.75;105379;1251;60491;-57
2024/01/17 10:05:50;;;;;;;8.50;2.80;;;;;;;-2.42;44.46;100757.14;105594;1251;60431;-58
2024/01/17 10:08:18;;;;;;;10.40;3.90;;;;;;;-2.36;44.46;100751.54;106320;1257;73954;-57
2024/01/17 10:10:45;;;;;;;8.30;3.20;;;;;;;-2.32;44.34;100748.02;105413;1257;68989;-56
2024/01/17 10:13:13;;;;;;;13.40;5.80;;;;;;;-2.28;44.32;100746.56;105587;1257;73403;-57
2024/01/17 10:15:47;;;;;;;15.00;4.00;;;;;;;-2.24;44.14;100745.61;105525;1257;60501;-57
2024/01/17 10:18:15;;;;;;;12.00;5.00;;;;;;;-2.24;44.04;100746.83;105349;1257;60618;-57
2024/01/17 10:20:43;;;;;;;16.00;5.10;;;;;;;-2.22;44.01;100748.33;105446;1254;72641;-57
2024/01/17 10:23:11;;;;;;;14.40;4.60;;;;;;;-2.20;44.04;100746.91;105655;1254;70443;-57
2024/01/17 10:25:40;;;;;;;11.60;3.60;;;;;;;-2.18;43.99;100743.05;105165;1261;71522;-57
2024/01/17 10:28:08;;;;;;;14.90;4.70;;;;;;;-2.11;43.99;100743.08;105546;1254;62281;-57
2024/01/17 10:30:36;;;;;;;10.40;4.00;;;;;;;-2.04;43.94;100739.34;106479;1258;60367;-58
2024/01/17 10:33:06;;;;;;;10.70;3.60;;;;;;;-1.99;43.84;100738.53;105686;1254;76053;-55
2024/01/17 10:35:33;;;;;;;16.10;4.70;;;;;;;-1.92;43.74;100735.10;105794;1257;69020;-57
2024/01/17 10:38:02;;;;;;;10.40;4.70;;;;;;;-1.91;43.67;100731.98;105282;1257;74081;-57
2024/01/17 10:40:30;;;;;;;10.00;4.40;;;;;;;-1.85;43.60;100729.45;105327;1259;61765;-57
2024/01/17 10:43:10;;;;;;;10.60;4.10;;;;;;;-1.79;43.50;100727.24;105419;1252;62562;-57
2024/01/17 10:45:39;;;;;;;9.60;4.60;;;;;;;-1.72;43.44;100725.00;105387;1253;72710;-57
2024/01/17 10:48:08;;;;;;;8.90;3.90;;;;;;;-1.65;43.41;100724.50;106398;1254;72629;-57
2024/01/17 10:50:36;;;;;;;13.50;5.00;;;;;;;-1.61;43.20;100723.37;105715;1254;74061;-57
2024/01/17 10:53:05;;;;;;;10.70;4.50;;;;;;;-1.58;43.16;100717.95;105384;1259;60434;-57
2024/01/17 10:55:35;;;;;;;10.90;4.10;;;;;;;-1.51;43.14;100716.42;105794;1254;60633;-57
2024/01/17 10:58:11;;;;;;;11.50;4.70;;;;;;;-1.45;43.17;100716.10;105406;1254;74473;-56
2024/01/17 11:00:41;;;;;;;14.60;4.10;;;;;;;-1.41;43.07;100714.95;105500;1259;70742;-58
2024/01/17 11:03:09;;;;;;;9.80;3.00;;;;;;;-1.32;43.14;100714.55;105500;1254;71626;-57
2024/01/17 11:05:46;;;;;;;10.80;5.30;;;;;;;-1.24;43.04;100713.16;105670;1259;60654;-58
2024/01/17 11:08:15;;;;;;;14.20;5.00;;;;;;;-1.16;42.88;100704.52;105315;1260;60358;-58
2024/01/17 11:10:43;;;;;;;11.90;4.90;;;;;;;-1.12;42.62;100703.55;105317;1254;75683;-57
2024/01/17 11:13:12;;;;;;;14.30;3.80;;;;;;;-1.11;42.49;100702.48;105302;1254;70272;-57
2024/01/17 11:15:40;;;;;;;14.30;4.70;;;;;;;-1.10;42.33;100695.05;105396;1260;71502;-57
2024/01/17 11:18:12;;;;;;;9.70;3.60;;;;;;;-1.11;42.29;100696.11;105745;1259;60428;-56